sensor_id;sensor_type;location;lat;lon;timestamp;temperature;humidity
13488;DHT22;6816;48.506;9.050;2023-08-31T00:00:42;16.40;99.90
13488;DHT22;6816;48.506;9.050;2023-08-31T00:03:43;16.40;99.90
13488;DHT22;6816;48.506;9.050;2023-08-31T00:06:44;16.40;99.90
13488;DHT22;6816;48.506;9.050;2023-08-31T00:09:47;16.40;99.90
13488;DHT22;6816;48.506;9.050;2023-08-31T00:12:48;16.30;99.90
13488;DHT22;6816;48.506;9.050;2023-08-31T00:15:49;16.30;99.90
13488;DHT22;6816;48.506;9.050;2023-08-31T00:18:50;16.30;99.90
13488;DHT22;6816;48.506;9.050;2023-08-31T00:21:50;16.30;99.90
13488;DHT22;6816;48.506;9.050;2023-08-31T00:24:51;16.30;99.90
13488;DHT22;6816;48.506;9.050;2023-08-31T00:27:53;16.30;99.90
13488;DHT22;6816;48.506;9.050;2023-08-31T00:30:54;16.30;99.90
13488;DHT22;6816;48.506;9.050;2023-08-31T00:33:55;16.40;99.90
13488;DHT22;6816;48.506;9.050;2023-08-31T00:36:55;16.20;99.90
13488;DHT22;6816;48.506;9.050;2023-08-31T00:39:56;16.30;99.90
13488;DHT22;6816;48.506;9.050;2023-08-31T00:42:57;16.30;99.90
13488;DHT22;6816;48.506;9.050;2023-08-31T00:45:58;16.20;99.90
13488;DHT22;6816;48.506;9.050;2023-08-31T00:48:58;16.30;99.90
13488;DHT22;6816;48.506;9.050;2023-08-31T00:51:59;16.40;99.90
13488;DHT22;6816;48.506;9.050;2023-08-31T00:55:00;16.20;99.90
13488;DHT22;6816;48.506;9.050;2023-08-31T00:58:06;16.20;99.90
13488;DHT22;6816;48.506;9.050;2023-08-31T01:01:13;16.20;99.90
13488;DHT22;6816;48.506;9.050;2023-08-31T01:08:22;16.30;99.90
13488;DHT22;6816;48.506;9.050;2023-08-31T01:11:04;16.20;99.90
13488;DHT22;6816;48.506;9.050;2023-08-31T01:14:12;16.20;99.90
13488;DHT22;6816;48.506;9.050;2023-08-31T01:17:15;16.20;99.90
13488;DHT22;6816;48.506;9.050;2023-08-31T01:26:48;16.20;99.90
13488;DHT22;6816;48.506;9.050;2023-08-31T01:29:49;16.20;99.90
13488;DHT22;6816;48.506;9.050;2023-08-31T01:32:50;16.20;99.90
13488;DHT22;6816;48.506;9.050;2023-08-31T01:35:51;16.10;99.90
13488;DHT22;6816;48.506;9.050;2023-08-31T01:39:35;16.20;99.90
13488;DHT22;6816;48.506;9.050;2023-08-31T01:42:36;16.20;99.90
13488;DHT22;6816;48.506;9.050;2023-08-31T01:45:37;16.20;99.90
13488;DHT22;6816;48.506;9.050;2023-08-31T01:48:39;16.20;99.90
13488;DHT22;6816;48.506;9.050;2023-08-31T01:51:40;16.20;99.90
13488;DHT22;6816;48.506;9.050;2023-08-31T01:54:41;16.10;99.90
13488;DHT22;6816;48.506;9.050;2023-08-31T01:57:42;16.10;99.90
13488;DHT22;6816;48.506;9.050;2023-08-31T02:00:42;16.10;99.90
13488;DHT22;6816;48.506;9.050;2023-08-31T02:03:44;16.10;99.90
13488;DHT22;6816;48.506;9.050;2023-08-31T02:06:45;16.10;99.90
13488;DHT22;6816;48.506;9.050;2023-08-31T02:09:46;15.90;99.90
13488;DHT22;6816;48.506;9.050;2023-08-31T02:12:46;15.90;99.90
13488;DHT22;6816;48.506;9.050;2023-08-31T02:15:51;15.90;99.90
13488;DHT22;6816;48.506;9.050;2023-08-31T02:18:52;15.80;99.90
13488;DHT22;6816;48.506;9.050;2023-08-31T02:21:52;15.80;99.90
13488;DHT22;6816;48.506;9.050;2023-08-31T02:24:53;15.80;99.90
13488;DHT22;6816;48.506;9.050;2023-08-31T02:27:54;15.70;99.90
13488;DHT22;6816;48.506;9.050;2023-08-31T02:30:59;15.70;99.90
13488;DHT22;6816;48.506;9.050;2023-08-31T02:34:00;15.60;99.90
13488;DHT22;6816;48.506;9.050;2023-08-31T02:37:00;15.60;99.90
13488;DHT22;6816;48.506;9.050;2023-08-31T02:40:01;15.60;99.90
13488;DHT22;6816;48.506;9.050;2023-08-31T02:43:01;15.50;99.90
13488;DHT22;6816;48.506;9.050;2023-08-31T02:46:03;15.50;99.90
13488;DHT22;6816;48.506;9.050;2023-08-31T02:49:04;15.50;99.90
13488;DHT22;6816;48.506;9.050;2023-08-31T02:52:05;15.50;99.90
13488;DHT22;6816;48.506;9.050;2023-08-31T02:55:06;15.50;99.90
13488;DHT22;6816;48.506;9.050;2023-08-31T02:58:07;15.40;99.90
13488;DHT22;6816;48.506;9.050;2023-08-31T03:01:12;15.40;99.90
13488;DHT22;6816;48.506;9.050;2023-08-31T03:04:12;15.40;99.90
13488;DHT22;6816;48.506;9.050;2023-08-31T03:07:13;15.40;99.90
13488;DHT22;6816;48.506;9.050;2023-08-31T03:10:13;15.30;99.90
13488;DHT22;6816;48.506;9.050;2023-08-31T03:13:14;15.30;99.90
13488;DHT22;6816;48.506;9.050;2023-08-31T03:16:15;15.30;99.90
13488;DHT22;6816;48.506;9.050;2023-08-31T03:19:15;15.30;99.90
13488;DHT22;6816;48.506;9.050;2023-08-31T03:22:16;15.30;99.90
13488;DHT22;6816;48.506;9.050;2023-08-31T03:25:16;15.30;99.90
13488;DHT22;6816;48.506;9.050;2023-08-31T03:28:17;15.30;99.90
13488;DHT22;6816;48.506;9.050;2023-08-31T03:31:18;15.40;99.90
13488;DHT22;6816;48.506;9.050;2023-08-31T03:34:18;15.30;99.90
13488;DHT22;6816;48.506;9.050;2023-08-31T03:37:19;15.40;99.90
13488;DHT22;6816;48.506;9.050;2023-08-31T03:40:20;15.40;99.90
13488;DHT22;6816;48.506;9.050;2023-08-31T03:43:21;15.40;99.90
13488;DHT22;6816;48.506;9.050;2023-08-31T03:46:22;15.30;99.90
13488;DHT22;6816;48.506;9.050;2023-08-31T03:49:23;15.30;99.90
13488;DHT22;6816;48.506;9.050;2023-08-31T03:52:23;15.30;99.90
13488;DHT22;6816;48.506;9.050;2023-08-31T03:55:24;15.30;99.90
13488;DHT22;6816;48.506;9.050;2023-08-31T03:58:24;15.40;99.90
13488;DHT22;6816;48.506;9.050;2023-08-31T04:01:25;15.50;99.90
13488;DHT22;6816;48.506;9.050;2023-08-31T04:04:26;15.40;99.90
13488;DHT22;6816;48.506;9.050;2023-08-31T04:07:26;15.30;99.90
13488;DHT22;6816;48.506;9.050;2023-08-31T04:10:27;15.40;99.90
13488;DHT22;6816;48.506;9.050;2023-08-31T04:13:29;15.50;99.90
13488;DHT22;6816;48.506;9.050;2023-08-31T04:16:31;15.40;99.90
13488;DHT22;6816;48.506;9.050;2023-08-31T04:19:31;15.40;99.90
13488;DHT22;6816;48.506;9.050;2023-08-31T04:22:32;15.40;99.90
13488;DHT22;6816;48.506;9.050;2023-08-31T04:25:33;15.40;99.90
13488;DHT22;6816;48.506;9.050;2023-08-31T04:28:33;15.40;99.90
13488;DHT22;6816;48.506;9.050;2023-08-31T04:31:34;15.40;99.90
13488;DHT22;6816;48.506;9.050;2023-08-31T04:34:35;15.50;99.90
13488;DHT22;6816;48.506;9.050;2023-08-31T04:37:36;15.40;99.90
13488;DHT22;6816;48.506;9.050;2023-08-31T04:40:36;15.40;99.90
13488;DHT22;6816;48.506;9.050;2023-08-31T04:43:37;15.40;99.90
13488;DHT22;6816;48.506;9.050;2023-08-31T04:46:38;15.40;99.90
13488;DHT22;6816;48.506;9.050;2023-08-31T04:49:39;15.40;99.90
13488;DHT22;6816;48.506;9.050;2023-08-31T04:52:39;15.30;99.90
13488;DHT22;6816;48.506;9.050;2023-08-31T04:55:40;15.40;99.90
13488;DHT22;6816;48.506;9.050;2023-08-31T04:58:40;15.40;99.90
13488;DHT22;6816;48.506;9.050;2023-08-31T05:01:41;15.40;99.90
13488;DHT22;6816;48.506;9.050;2023-08-31T05:04:41;15.40;99.90
13488;DHT22;6816;48.506;9.050;2023-08-31T05:07:42;15.40;99.90
13488;DHT22;6816;48.506;9.050;2023-08-31T05:10:45;15.60;99.90
13488;DHT22;6816;48.506;9.050;2023-08-31T05:13:46;15.40;99.90
13488;DHT22;6816;48.506;9.050;2023-08-31T05:16:47;15.40;99.90
13488;DHT22;6816;48.506;9.050;2023-08-31T05:19:47;15.40;99.90
13488;DHT22;6816;48.506;9.050;2023-08-31T05:22:48;15.40;99.90
13488;DHT22;6816;48.506;9.050;2023-08-31T05:25:49;15.40;99.90
13488;DHT22;6816;48.506;9.050;2023-08-31T05:28:49;15.40;99.90
13488;DHT22;6816;48.506;9.050;2023-08-31T05:31:52;15.40;99.90
13488;DHT22;6816;48.506;9.050;2023-08-31T05:34:53;15.50;99.90
13488;DHT22;6816;48.506;9.050;2023-08-31T05:37:54;15.40;99.90
13488;DHT22;6816;48.506;9.050;2023-08-31T05:40:54;15.50;99.90
13488;DHT22;6816;48.506;9.050;2023-08-31T05:43:55;15.50;99.90
13488;DHT22;6816;48.506;9.050;2023-08-31T05:46:55;15.60;99.90
13488;DHT22;6816;48.506;9.050;2023-08-31T05:49:56;15.60;99.90
13488;DHT22;6816;48.506;9.050;2023-08-31T05:52:57;15.80;99.90
13488;DHT22;6816;48.506;9.050;2023-08-31T05:55:58;15.80;99.90
13488;DHT22;6816;48.506;9.050;2023-08-31T05:59:04;15.90;99.90
13488;DHT22;6816;48.506;9.050;2023-08-31T06:02:04;16.00;99.90
13488;DHT22;6816;48.506;9.050;2023-08-31T06:05:05;16.00;99.90
13488;DHT22;6816;48.506;9.050;2023-08-31T06:08:07;16.00;99.90
13488;DHT22;6816;48.506;9.050;2023-08-31T06:11:07;16.10;99.90
13488;DHT22;6816;48.506;9.050;2023-08-31T06:14:08;16.10;99.90
13488;DHT22;6816;48.506;9.050;2023-08-31T06:17:08;16.20;99.90
13488;DHT22;6816;48.506;9.050;2023-08-31T06:20:11;16.20;99.90
13488;DHT22;6816;48.506;9.050;2023-08-31T06:23:12;16.20;99.90
13488;DHT22;6816;48.506;9.050;2023-08-31T06:26:13;16.30;99.90
13488;DHT22;6816;48.506;9.050;2023-08-31T06:29:13;16.40;99.90
13488;DHT22;6816;48.506;9.050;2023-08-31T06:32:15;16.40;99.90
13488;DHT22;6816;48.506;9.050;2023-08-31T06:35:16;16.40;99.90
13488;DHT22;6816;48.506;9.050;2023-08-31T06:38:18;16.40;99.90
13488;DHT22;6816;48.506;9.050;2023-08-31T06:41:19;16.40;99.90
13488;DHT22;6816;48.506;9.050;2023-08-31T06:44:19;16.40;99.90
13488;DHT22;6816;48.506;9.050;2023-08-31T06:47:20;16.50;99.90
13488;DHT22;6816;48.506;9.050;2023-08-31T06:50:20;16.50;99.90
13488;DHT22;6816;48.506;9.050;2023-08-31T06:53:21;16.50;99.90
13488;DHT22;6816;48.506;9.050;2023-08-31T06:56:22;16.60;99.90
13488;DHT22;6816;48.506;9.050;2023-08-31T06:59:22;16.60;99.90
13488;DHT22;6816;48.506;9.050;2023-08-31T07:02:26;16.60;99.90
13488;DHT22;6816;48.506;9.050;2023-08-31T07:05:27;16.70;99.90
13488;DHT22;6816;48.506;9.050;2023-08-31T07:08:29;16.70;99.90
13488;DHT22;6816;48.506;9.050;2023-08-31T07:11:31;16.80;99.90
13488;DHT22;6816;48.506;9.050;2023-08-31T07:14:31;16.80;99.90
13488;DHT22;6816;48.506;9.050;2023-08-31T07:17:32;16.90;99.90
13488;DHT22;6816;48.506;9.050;2023-08-31T07:20:32;17.00;99.90
13488;DHT22;6816;48.506;9.050;2023-08-31T07:23:33;16.90;99.90
13488;DHT22;6816;48.506;9.050;2023-08-31T07:26:34;17.10;99.90
13488;DHT22;6816;48.506;9.050;2023-08-31T07:29:35;17.10;99.90
13488;DHT22;6816;48.506;9.050;2023-08-31T07:32:35;17.00;99.90
13488;DHT22;6816;48.506;9.050;2023-08-31T07:35:36;17.20;99.90
13488;DHT22;6816;48.506;9.050;2023-08-31T07:38:36;17.20;99.90
13488;DHT22;6816;48.506;9.050;2023-08-31T07:41:37;17.20;99.90
13488;DHT22;6816;48.506;9.050;2023-08-31T07:44:38;17.30;99.90
13488;DHT22;6816;48.506;9.050;2023-08-31T07:47:38;17.30;99.90
13488;DHT22;6816;48.506;9.050;2023-08-31T07:50:42;17.30;99.90
13488;DHT22;6816;48.506;9.050;2023-08-31T07:53:43;17.30;99.90
13488;DHT22;6816;48.506;9.050;2023-08-31T07:56:44;17.30;99.90
13488;DHT22;6816;48.506;9.050;2023-08-31T07:59:45;17.30;99.90
13488;DHT22;6816;48.506;9.050;2023-08-31T08:02:46;17.30;99.90
13488;DHT22;6816;48.506;9.050;2023-08-31T08:05:47;17.20;99.90
13488;DHT22;6816;48.506;9.050;2023-08-31T08:08:47;17.20;99.90
13488;DHT22;6816;48.506;9.050;2023-08-31T08:11:48;17.30;99.90
13488;DHT22;6816;48.506;9.050;2023-08-31T08:14:48;17.30;99.90
13488;DHT22;6816;48.506;9.050;2023-08-31T08:17:49;17.20;99.90
13488;DHT22;6816;48.506;9.050;2023-08-31T08:20:50;17.20;99.90
13488;DHT22;6816;48.506;9.050;2023-08-31T08:23:51;17.20;99.90
13488;DHT22;6816;48.506;9.050;2023-08-31T08:26:52;17.20;99.90
13488;DHT22;6816;48.506;9.050;2023-08-31T08:29:53;17.20;99.90
13488;DHT22;6816;48.506;9.050;2023-08-31T08:32:53;17.30;99.90
13488;DHT22;6816;48.506;9.050;2023-08-31T08:35:56;17.30;99.90
13488;DHT22;6816;48.506;9.050;2023-08-31T08:38:57;17.40;99.90
13488;DHT22;6816;48.506;9.050;2023-08-31T08:41:58;17.40;99.90
13488;DHT22;6816;48.506;9.050;2023-08-31T08:45:01;17.30;99.90
13488;DHT22;6816;48.506;9.050;2023-08-31T08:48:05;17.40;99.90
13488;DHT22;6816;48.506;9.050;2023-08-31T08:51:06;17.50;99.90
13488;DHT22;6816;48.506;9.050;2023-08-31T08:54:08;17.60;99.90
13488;DHT22;6816;48.506;9.050;2023-08-31T08:57:08;17.50;99.90
13488;DHT22;6816;48.506;9.050;2023-08-31T09:00:09;17.70;99.90
13488;DHT22;6816;48.506;9.050;2023-08-31T09:03:11;17.60;99.90
13488;DHT22;6816;48.506;9.050;2023-08-31T09:06:11;17.90;99.90
13488;DHT22;6816;48.506;9.050;2023-08-31T09:09:12;17.80;99.90
13488;DHT22;6816;48.506;9.050;2023-08-31T09:12:13;17.90;99.90
13488;DHT22;6816;48.506;9.050;2023-08-31T09:15:13;18.00;99.90
13488;DHT22;6816;48.506;9.050;2023-08-31T09:21:35;18.00;99.90
13488;DHT22;6816;48.506;9.050;2023-08-31T09:24:40;18.10;99.90
13488;DHT22;6816;48.506;9.050;2023-08-31T09:27:41;18.10;99.90
13488;DHT22;6816;48.506;9.050;2023-08-31T09:30:49;18.10;99.90
13488;DHT22;6816;48.506;9.050;2023-08-31T09:33:53;18.10;99.90
13488;DHT22;6816;48.506;9.050;2023-08-31T09:36:54;18.10;99.90
13488;DHT22;6816;48.506;9.050;2023-08-31T09:39:54;18.10;99.90
13488;DHT22;6816;48.506;9.050;2023-08-31T09:42:55;18.20;99.90
13488;DHT22;6816;48.506;9.050;2023-08-31T09:45:55;18.20;99.90
13488;DHT22;6816;48.506;9.050;2023-08-31T09:48:56;18.30;99.90
13488;DHT22;6816;48.506;9.050;2023-08-31T09:52:01;18.30;99.90
13488;DHT22;6816;48.506;9.050;2023-08-31T09:55:04;18.30;99.90
13488;DHT22;6816;48.506;9.050;2023-08-31T09:58:07;18.40;99.90
13488;DHT22;6816;48.506;9.050;2023-08-31T10:01:08;18.40;99.90
13488;DHT22;6816;48.506;9.050;2023-08-31T10:04:09;18.50;99.90
13488;DHT22;6816;48.506;9.050;2023-08-31T10:07:11;18.50;99.90
13488;DHT22;6816;48.506;9.050;2023-08-31T10:10:13;18.60;99.90
13488;DHT22;6816;48.506;9.050;2023-08-31T10:13:14;18.60;99.90
13488;DHT22;6816;48.506;9.050;2023-08-31T10:16:16;18.60;99.90
13488;DHT22;6816;48.506;9.050;2023-08-31T10:19:19;18.60;99.90
13488;DHT22;6816;48.506;9.050;2023-08-31T10:22:20;18.60;99.90
13488;DHT22;6816;48.506;9.050;2023-08-31T10:25:20;18.60;99.90
13488;DHT22;6816;48.506;9.050;2023-08-31T10:28:25;18.70;99.90
13488;DHT22;6816;48.506;9.050;2023-08-31T10:31:31;18.70;99.90
13488;DHT22;6816;48.506;9.050;2023-08-31T10:34:36;18.80;99.90
13488;DHT22;6816;48.506;9.050;2023-08-31T10:37:39;18.80;99.90
13488;DHT22;6816;48.506;9.050;2023-08-31T10:40:41;18.90;99.90
13488;DHT22;6816;48.506;9.050;2023-08-31T10:43:49;19.10;99.90
13488;DHT22;6816;48.506;9.050;2023-08-31T10:46:51;19.20;99.90
13488;DHT22;6816;48.506;9.050;2023-08-31T10:49:52;19.20;99.90
13488;DHT22;6816;48.506;9.050;2023-08-31T10:52:53;19.30;99.90
13488;DHT22;6816;48.506;9.050;2023-08-31T10:55:54;19.30;99.90
13488;DHT22;6816;48.506;9.050;2023-08-31T10:58:59;19.30;99.90
13488;DHT22;6816;48.506;9.050;2023-08-31T11:02:01;19.30;99.90
13488;DHT22;6816;48.506;9.050;2023-08-31T11:05:09;19.30;99.90
13488;DHT22;6816;48.506;9.050;2023-08-31T11:08:09;19.40;99.90
13488;DHT22;6816;48.506;9.050;2023-08-31T11:11:10;19.40;99.90
13488;DHT22;6816;48.506;9.050;2023-08-31T11:14:11;19.40;99.90
13488;DHT22;6816;48.506;9.050;2023-08-31T11:17:11;19.40;99.90
13488;DHT22;6816;48.506;9.050;2023-08-31T11:20:17;19.50;99.90
13488;DHT22;6816;48.506;9.050;2023-08-31T11:23:18;19.50;99.90
13488;DHT22;6816;48.506;9.050;2023-08-31T11:26:18;19.60;99.90
13488;DHT22;6816;48.506;9.050;2023-08-31T11:29:20;19.60;99.90
13488;DHT22;6816;48.506;9.050;2023-08-31T11:32:23;19.70;99.90
13488;DHT22;6816;48.506;9.050;2023-08-31T11:35:38;19.80;99.90
13488;DHT22;6816;48.506;9.050;2023-08-31T11:38:41;19.90;99.90
13488;DHT22;6816;48.506;9.050;2023-08-31T11:41:42;19.90;99.90
13488;DHT22;6816;48.506;9.050;2023-08-31T11:44:43;20.00;99.90
13488;DHT22;6816;48.506;9.050;2023-08-31T11:47:44;20.00;99.90
13488;DHT22;6816;48.506;9.050;2023-08-31T11:50:45;20.00;99.90
13488;DHT22;6816;48.506;9.050;2023-08-31T11:53:46;20.00;99.90
13488;DHT22;6816;48.506;9.050;2023-08-31T11:56:47;20.10;99.90
13488;DHT22;6816;48.506;9.050;2023-08-31T11:59:50;20.20;99.90
13488;DHT22;6816;48.506;9.050;2023-08-31T12:05:57;20.30;99.90
13488;DHT22;6816;48.506;9.050;2023-08-31T12:08:58;20.30;99.90
13488;DHT22;6816;48.506;9.050;2023-08-31T12:11:59;20.30;99.90
13488;DHT22;6816;48.506;9.050;2023-08-31T12:15:06;20.40;99.90
13488;DHT22;6816;48.506;9.050;2023-08-31T12:18:10;20.40;99.90
13488;DHT22;6816;48.506;9.050;2023-08-31T12:21:11;20.50;99.90
13488;DHT22;6816;48.506;9.050;2023-08-31T12:24:12;20.60;99.90
13488;DHT22;6816;48.506;9.050;2023-08-31T12:27:13;20.70;99.90
13488;DHT22;6816;48.506;9.050;2023-08-31T12:30:14;20.70;99.90
13488;DHT22;6816;48.506;9.050;2023-08-31T12:33:14;20.80;99.90
13488;DHT22;6816;48.506;9.050;2023-08-31T12:36:15;20.80;99.90
13488;DHT22;6816;48.506;9.050;2023-08-31T12:39:16;20.80;99.90
13488;DHT22;6816;48.506;9.050;2023-08-31T12:42:16;20.80;99.90
13488;DHT22;6816;48.506;9.050;2023-08-31T12:45:17;20.80;99.90
13488;DHT22;6816;48.506;9.050;2023-08-31T12:48:17;20.80;99.90
13488;DHT22;6816;48.506;9.050;2023-08-31T12:51:19;20.80;99.80
13488;DHT22;6816;48.506;9.050;2023-08-31T12:54:19;20.80;99.80
13488;DHT22;6816;48.506;9.050;2023-08-31T12:57:20;20.80;99.80
13488;DHT22;6816;48.506;9.050;2023-08-31T13:00:20;20.80;99.80
13488;DHT22;6816;48.506;9.050;2023-08-31T13:03:21;20.80;99.30
13488;DHT22;6816;48.506;9.050;2023-08-31T13:06:22;20.80;99.30
13488;DHT22;6816;48.506;9.050;2023-08-31T13:09:24;20.80;99.10
13488;DHT22;6816;48.506;9.050;2023-08-31T13:12:25;20.70;99.70
13488;DHT22;6816;48.506;9.050;2023-08-31T13:15:26;20.80;99.60
13488;DHT22;6816;48.506;9.050;2023-08-31T13:18:26;20.80;99.60
13488;DHT22;6816;48.506;9.050;2023-08-31T13:21:27;20.80;99.70
13488;DHT22;6816;48.506;9.050;2023-08-31T13:24:27;20.70;99.50
13488;DHT22;6816;48.506;9.050;2023-08-31T13:27:28;20.80;99.20
13488;DHT22;6816;48.506;9.050;2023-08-31T13:30:29;20.90;99.20
13488;DHT22;6816;48.506;9.050;2023-08-31T13:33:30;20.80;99.10
13488;DHT22;6816;48.506;9.050;2023-08-31T13:36:31;20.90;99.00
13488;DHT22;6816;48.506;9.050;2023-08-31T13:39:34;20.90;98.90
13488;DHT22;6816;48.506;9.050;2023-08-31T13:42:36;20.90;98.10
13488;DHT22;6816;48.506;9.050;2023-08-31T13:45:41;20.90;99.00
13488;DHT22;6816;48.506;9.050;2023-08-31T13:48:41;21.00;99.20
13488;DHT22;6816;48.506;9.050;2023-08-31T13:51:42;21.00;99.10
13488;DHT22;6816;48.506;9.050;2023-08-31T13:54:43;21.10;99.20
13488;DHT22;6816;48.506;9.050;2023-08-31T13:57:43;21.10;98.70
13488;DHT22;6816;48.506;9.050;2023-08-31T14:00:44;21.10;98.50
13488;DHT22;6816;48.506;9.050;2023-08-31T14:03:45;21.10;98.40
13488;DHT22;6816;48.506;9.050;2023-08-31T14:06:45;21.20;98.70
13488;DHT22;6816;48.506;9.050;2023-08-31T14:09:46;21.20;98.50
13488;DHT22;6816;48.506;9.050;2023-08-31T14:12:47;21.20;98.20
13488;DHT22;6816;48.506;9.050;2023-08-31T14:15:48;21.20;98.40
13488;DHT22;6816;48.506;9.050;2023-08-31T14:18:48;21.20;98.20
13488;DHT22;6816;48.506;9.050;2023-08-31T14:21:49;21.10;98.00
13488;DHT22;6816;48.506;9.050;2023-08-31T14:24:49;21.10;97.70
13488;DHT22;6816;48.506;9.050;2023-08-31T14:27:50;21.20;98.00
13488;DHT22;6816;48.506;9.050;2023-08-31T14:30:50;21.10;98.00
13488;DHT22;6816;48.506;9.050;2023-08-31T14:33:51;21.10;97.90
13488;DHT22;6816;48.506;9.050;2023-08-31T14:36:52;21.20;98.50
13488;DHT22;6816;48.506;9.050;2023-08-31T14:39:54;21.10;98.30
13488;DHT22;6816;48.506;9.050;2023-08-31T22:16:12;14.40;99.90
13488;DHT22;6816;48.506;9.050;2023-08-31T22:19:13;14.30;99.90
13488;DHT22;6816;48.506;9.050;2023-08-31T22:22:14;14.60;99.90
13488;DHT22;6816;48.506;9.050;2023-08-31T22:25:15;15.00;99.90
13488;DHT22;6816;48.506;9.050;2023-08-31T22:28:16;15.40;99.90
13488;DHT22;6816;48.506;9.050;2023-08-31T22:31:17;15.70;99.90
13488;DHT22;6816;48.506;9.050;2023-08-31T22:34:17;16.00;99.90
13488;DHT22;6816;48.506;9.050;2023-08-31T22:37:18;16.20;99.90
13488;DHT22;6816;48.506;9.050;2023-08-31T22:40:18;16.40;99.90
13488;DHT22;6816;48.506;9.050;2023-08-31T22:43:19;16.60;99.90
13488;DHT22;6816;48.506;9.050;2023-08-31T22:46:20;16.70;99.90
13488;DHT22;6816;48.506;9.050;2023-08-31T22:49:20;16.90;99.90
13488;DHT22;6816;48.506;9.050;2023-08-31T22:52:21;17.00;99.90
13488;DHT22;6816;48.506;9.050;2023-08-31T22:55:21;17.10;99.90
13488;DHT22;6816;48.506;9.050;2023-08-31T22:58:22;17.30;99.90
13488;DHT22;6816;48.506;9.050;2023-08-31T23:01:22;17.30;99.90
13488;DHT22;6816;48.506;9.050;2023-08-31T23:04:23;17.40;99.90
13488;DHT22;6816;48.506;9.050;2023-08-31T23:07:24;17.50;99.90
13488;DHT22;6816;48.506;9.050;2023-08-31T23:10:24;17.50;99.90
13488;DHT22;6816;48.506;9.050;2023-08-31T23:13:25;17.60;99.90
13488;DHT22;6816;48.506;9.050;2023-08-31T23:16:26;17.70;99.90
13488;DHT22;6816;48.506;9.050;2023-08-31T23:19:27;17.70;99.90
13488;DHT22;6816;48.506;9.050;2023-08-31T23:22:28;17.80;99.90
13488;DHT22;6816;48.506;9.050;2023-08-31T23:25:28;17.90;99.90
13488;DHT22;6816;48.506;9.050;2023-08-31T23:28:29;17.90;99.90
13488;DHT22;6816;48.506;9.050;2023-08-31T23:31:30;17.80;99.90
13488;DHT22;6816;48.506;9.050;2023-08-31T23:34:31;17.80;99.90
13488;DHT22;6816;48.506;9.050;2023-08-31T23:37:31;17.80;99.90
13488;DHT22;6816;48.506;9.050;2023-08-31T23:40:32;17.90;99.90
13488;DHT22;6816;48.506;9.050;2023-08-31T23:43:33;17.90;99.90
13488;DHT22;6816;48.506;9.050;2023-08-31T23:46:34;17.90;99.90
13488;DHT22;6816;48.506;9.050;2023-08-31T23:49:35;17.80;99.90
13488;DHT22;6816;48.506;9.050;2023-08-31T23:52:36;17.90;99.90
13488;DHT22;6816;48.506;9.050;2023-08-31T23:55:40;17.90;99.90
13488;DHT22;6816;48.506;9.050;2023-08-31T23:58:40;17.80;99.90
